createdAt,value
2023-04-18T00:01:40.279Z,69.99
2023-04-18T00:04:46.553Z,70.32
2023-04-18T00:07:50.041Z,70.13
2023-04-18T00:10:52.599Z,69.76
2023-04-18T00:13:55.173Z,70.09
2023-04-18T00:16:57.784Z,70.55
2023-04-18T00:20:07.228Z,70.03
2023-04-18T00:23:14.201Z,69.83
2023-04-18T00:26:17.640Z,70.16
2023-04-18T00:29:24.203Z,70.19
2023-04-18T00:32:29.011Z,70.37
2023-04-18T00:35:32.151Z,69.96
2023-04-18T00:38:35.832Z,69.77
2023-04-18T00:41:38.587Z,69.79
2023-04-18T00:44:41.186Z,69.42
2023-04-18T00:47:45.460Z,69.28
2023-04-18T00:50:48.074Z,69.25
2023-04-18T00:53:51.393Z,68.82
2023-04-18T00:56:54.205Z,68.56
2023-04-18T00:59:56.903Z,68.87
2023-04-18T01:03:01.084Z,68.22
2023-04-18T01:06:04.071Z,68.41
2023-04-18T01:09:09.429Z,68.18
2023-04-18T01:12:12.064Z,68.25
2023-04-18T01:15:14.727Z,68.55
2023-04-18T01:18:19.166Z,67.96
2023-04-18T01:21:22.294Z,68.15
2023-04-18T01:24:26.908Z,68.09
2023-04-18T01:27:29.575Z,68.37
2023-04-18T01:30:33.743Z,68.33
2023-04-18T01:33:36.450Z,68.17
2023-04-18T01:36:39.170Z,68.55
2023-04-18T01:39:42.074Z,68.59
2023-04-18T01:42:46.185Z,68.69
2023-04-18T01:45:48.868Z,68.54
2023-04-18T01:48:51.589Z,68.42
2023-04-18T01:51:57.186Z,68.58
2023-04-18T01:55:02.175Z,68.49
2023-04-18T01:58:04.829Z,68.05
2023-04-18T02:01:08.845Z,68.48
2023-04-18T02:04:11.811Z,67.61
2023-04-18T02:07:14.668Z,67.62
2023-04-18T02:10:18.360Z,67.53
2023-04-18T02:13:21.031Z,67.57
2023-04-18T02:16:23.727Z,67.44
2023-04-18T02:19:26.483Z,67.97
2023-04-18T02:22:29.189Z,67.73
2023-04-18T02:25:33.036Z,67.59
2023-04-18T02:28:38.928Z,67.52
2023-04-18T02:31:42.497Z,67.27
2023-04-18T02:34:45.336Z,67.96
2023-04-18T02:37:48.094Z,67.55
2023-04-18T02:40:51.071Z,67.19
2023-04-18T02:43:55.290Z,67.22
2023-04-18T02:46:58.802Z,67.03
2023-04-18T02:50:01.661Z,67.31
2023-04-18T02:53:04.601Z,67.95
2023-04-18T02:56:24.399Z,67.94
2023-04-18T02:59:46.869Z,68.49
2023-04-18T03:02:50.700Z,68.29
2023-04-18T03:06:04.482Z,68.67
2023-04-18T03:09:09.021Z,68.17
2023-04-18T03:12:16.220Z,68.27
2023-04-18T03:15:19.755Z,68.03
2023-04-18T03:18:24.265Z,67.83
2023-04-18T03:21:31.470Z,68.54
2023-04-18T03:24:34.730Z,67.39
2023-04-18T03:27:40.557Z,67.87
2023-04-18T03:30:44.326Z,67.81
2023-04-18T03:33:51.705Z,67.43
2023-04-18T03:36:54.854Z,67.90
2023-04-18T03:39:57.690Z,67.71
2023-04-18T03:43:03.193Z,68.27
2023-04-18T03:46:06.131Z,67.91
2023-04-18T03:49:09.492Z,67.79
2023-04-18T03:52:14.329Z,68.19
2023-04-18T03:55:19.706Z,68.36
2023-04-18T03:58:23.844Z,69.00
2023-04-18T04:01:28.976Z,68.88
2023-04-18T04:04:31.689Z,69.29
2023-04-18T04:07:35.418Z,70.93
2023-04-18T04:10:38.625Z,70.80
2023-04-18T04:13:41.358Z,71.32
2023-04-18T04:16:46.044Z,72.08
2023-04-18T04:19:52.384Z,72.41
2023-04-18T04:22:58.998Z,73.80
2023-04-18T04:26:03.380Z,73.02
2023-04-18T04:29:25.057Z,73.63
2023-04-18T04:32:29.428Z,73.96
2023-04-18T04:35:32.301Z,73.79
2023-04-18T04:38:38.482Z,73.97
2023-04-18T04:41:43.196Z,74.29
2023-04-18T04:44:47.337Z,74.67
2023-04-18T04:47:51.160Z,75.66
2023-04-18T04:50:57.529Z,74.88
2023-04-18T04:54:01.845Z,75.30
2023-04-18T04:57:05.528Z,74.58
2023-04-18T05:00:09.068Z,74.72
2023-04-18T05:03:12.531Z,74.45
2023-04-18T05:06:20.659Z,73.12
2023-04-18T05:09:23.928Z,73.63
2023-04-18T05:12:26.892Z,73.31
2023-04-18T05:15:33.499Z,71.98
2023-04-18T05:18:39.943Z,72.43
2023-04-18T05:21:45.639Z,71.46
2023-04-18T05:24:51.470Z,70.82
2023-04-18T05:27:54.312Z,70.60
2023-04-18T05:31:13.993Z,71.17
2023-04-18T05:34:16.883Z,70.54
2023-04-18T05:37:19.573Z,70.22
2023-04-18T05:40:22.203Z,70.49
2023-04-18T05:43:25.180Z,69.59
2023-04-18T05:46:27.910Z,68.68
2023-04-18T05:49:31.618Z,68.34
2023-04-18T05:52:38.916Z,68.33
2023-04-18T05:55:41.897Z,67.66
2023-04-18T05:58:45.841Z,67.12
2023-04-18T06:01:49.582Z,66.66
2023-04-18T06:04:53.697Z,66.64
2023-04-18T06:07:57.737Z,66.11
2023-04-18T06:11:03.422Z,65.33
2023-04-18T06:14:06.269Z,65.68
2023-04-18T06:17:10.204Z,65.03
2023-04-18T06:20:13.053Z,65.47
2023-04-18T06:23:16.136Z,65.12
2023-04-18T06:26:18.930Z,64.21
2023-04-18T06:29:23.236Z,65.10
2023-04-18T06:32:26.901Z,62.73
2023-04-18T06:35:32.347Z,63.66
2023-04-18T06:38:35.496Z,63.31
2023-04-18T06:41:38.547Z,64.33
2023-04-18T06:44:43.325Z,62.58
2023-04-18T06:47:47.815Z,62.91
2023-04-18T06:50:50.887Z,63.17
2023-04-18T06:53:54.432Z,61.76
2023-04-18T06:56:57.473Z,61.06
2023-04-18T07:00:07.892Z,61.85
2023-04-18T07:03:18.188Z,61.90
2023-04-18T07:06:21.530Z,60.46
2023-04-18T07:09:24.510Z,59.88
2023-04-18T07:12:32.417Z,59.94
2023-04-18T07:15:43.281Z,59.61
2023-04-18T07:19:04.612Z,58.71
2023-04-18T07:22:11.872Z,58.11
2023-04-18T07:25:14.613Z,59.41
2023-04-18T07:28:17.363Z,58.51
2023-04-18T07:31:20.430Z,58.87
2023-04-18T07:34:23.495Z,58.36
2023-04-18T07:37:26.758Z,58.18
2023-04-18T07:40:29.565Z,59.33
2023-04-18T07:43:32.578Z,59.99
2023-04-18T07:46:50.317Z,60.01
2023-04-18T07:50:17.575Z,58.65
2023-04-18T07:53:38.394Z,59.30
2023-04-18T07:56:48.025Z,59.80
2023-04-18T08:00:03.662Z,59.55
2023-04-18T08:03:18.062Z,59.68
2023-04-18T08:06:37.685Z,59.33
2023-04-18T08:09:44.900Z,58.20
2023-04-18T08:12:48.995Z,57.84
2023-04-18T08:15:51.855Z,57.38
2023-04-18T08:19:01.197Z,56.63
2023-04-18T08:22:10.719Z,56.56
2023-04-18T08:25:14.428Z,56.60
2023-04-18T08:28:17.977Z,56.68
2023-04-18T08:31:20.926Z,56.27
2023-04-18T08:34:24.369Z,56.35
2023-04-18T08:37:28.125Z,55.13
2023-04-18T08:40:31.087Z,53.69
2023-04-18T08:43:34.700Z,53.87
2023-04-18T08:46:37.789Z,54.05
2023-04-18T08:49:42.813Z,54.69
2023-04-18T08:52:50.203Z,53.11
2023-04-18T08:55:57.432Z,52.85
2023-04-18T08:59:00.577Z,53.54
2023-04-18T09:02:10.497Z,52.68
2023-04-18T09:05:16.691Z,52.96
2023-04-18T09:08:24.559Z,52.27
2023-04-18T09:11:32.709Z,51.72
2023-04-18T09:14:49.739Z,52.29
2023-04-18T09:17:58.190Z,51.84
2023-04-18T09:21:19.819Z,52.10
2023-04-18T09:24:30.482Z,52.00
2023-04-18T09:27:53.757Z,51.05
2023-04-18T09:31:14.775Z,51.05
2023-04-18T09:34:54.091Z,50.58
2023-04-18T09:38:13.785Z,51.81
2023-04-18T09:41:21.190Z,50.69
2023-04-18T09:45:27.960Z,48.92
2023-04-18T09:48:38.033Z,49.15
2023-04-18T09:51:45.899Z,48.02
2023-04-18T09:55:07.068Z,48.38
2023-04-18T09:58:16.002Z,49.27
2023-04-18T10:01:19.570Z,48.22
2023-04-18T10:04:22.742Z,48.13
2023-04-18T10:07:27.520Z,47.74
2023-04-18T10:10:32.372Z,46.13
2023-04-18T10:13:48.480Z,44.20
2023-04-18T10:16:51.905Z,42.38
2023-04-18T10:20:08.129Z,41.98
2023-04-18T10:23:36.213Z,41.74
2023-04-18T10:26:50.368Z,41.76
2023-04-18T10:29:54.225Z,40.11
2023-04-18T10:32:56.947Z,40.93
2023-04-18T10:36:09.047Z,41.76
2023-04-18T10:39:22.613Z,40.68
2023-04-18T10:42:52.126Z,38.88
2023-04-18T10:46:23.924Z,38.39
2023-04-18T10:49:36.055Z,38.76
2023-04-18T10:52:39.535Z,37.70
2023-04-18T10:55:53.736Z,39.14
2023-04-18T10:59:01.496Z,39.43
2023-04-18T11:02:12.980Z,38.96
2023-04-18T11:05:21.999Z,38.21
2023-04-18T11:08:30.520Z,37.99
2023-04-18T11:11:34.344Z,38.27
2023-04-18T11:14:57.693Z,37.74
2023-04-18T11:18:06.274Z,36.22
2023-04-18T11:21:09.443Z,35.87
2023-04-18T11:24:21.710Z,35.99
2023-04-18T11:27:26.292Z,37.52
2023-04-18T11:30:41.098Z,38.25
2023-04-18T11:33:47.998Z,38.07
2023-04-18T11:36:51.461Z,38.43
2023-04-18T11:39:54.243Z,38.91
2023-04-18T11:43:01.517Z,39.93
2023-04-18T11:46:04.256Z,40.84
2023-04-18T11:49:07.156Z,40.88
2023-04-18T11:52:16.048Z,41.50
2023-04-18T11:56:36.830Z,40.80
2023-04-18T12:00:10.203Z,40.65
2023-04-18T12:03:20.522Z,39.25
2023-04-18T12:06:26.829Z,37.89
2023-04-18T12:09:30.111Z,37.86
2023-04-18T12:12:33.450Z,37.08
2023-04-18T12:15:42.857Z,36.31
2023-04-18T12:19:11.182Z,35.27
2023-04-18T12:22:50.807Z,34.18
2023-04-18T12:26:00.700Z,35.65
2023-04-18T12:29:03.677Z,36.81
2023-04-18T12:32:07.822Z,36.52
2023-04-18T12:35:10.832Z,36.87
2023-04-18T12:38:13.570Z,37.94
2023-04-18T12:41:16.925Z,37.89
2023-04-18T12:44:19.829Z,37.67
2023-04-18T12:47:32.655Z,37.20
2023-04-18T12:50:39.213Z,33.58
2023-04-18T12:54:06.566Z,33.32
2023-04-18T12:57:29.974Z,32.70
2023-04-18T13:00:34.753Z,30.47
2023-04-18T13:03:53.423Z,27.12
2023-04-18T13:07:02.727Z,24.56
2023-04-18T13:10:05.760Z,23.81
2023-04-18T13:13:09.518Z,22.45
2023-04-18T13:16:13.035Z,21.19
2023-04-18T13:19:15.829Z,21.06
2023-04-18T13:22:21.949Z,21.64
2023-04-18T13:25:26.010Z,22.51
2023-04-18T13:28:30.360Z,21.90
2023-04-18T13:31:33.041Z,24.25
2023-04-18T13:34:42.711Z,26.96
2023-04-18T13:37:46.257Z,24.08
2023-04-18T13:40:55.811Z,22.38
2023-04-18T13:44:08.266Z,21.65
2023-04-18T13:47:17.801Z,20.95
2023-04-18T13:50:23.623Z,20.70
2023-04-18T13:53:27.228Z,18.84
2023-04-18T13:56:31.010Z,18.75
2023-04-18T13:59:33.562Z,19.72
2023-04-18T14:02:36.519Z,21.33
2023-04-18T14:05:40.116Z,20.55
2023-04-18T14:08:42.851Z,21.16
2023-04-18T14:11:45.821Z,19.71
2023-04-18T14:14:51.134Z,20.61
2023-04-18T14:17:54.587Z,18.42
2023-04-18T14:20:57.280Z,16.55
2023-04-18T14:24:10.139Z,17.55
2023-04-18T14:27:12.782Z,16.17
2023-04-18T14:30:15.643Z,15.82
2023-04-18T14:33:18.420Z,16.34
2023-04-18T14:36:21.505Z,15.44
2023-04-18T14:39:25.186Z,14.36
2023-04-18T14:42:27.765Z,14.32
2023-04-18T14:45:34.229Z,15.50
2023-04-18T14:48:37.712Z,15.27
2023-04-18T14:51:42.257Z,14.71
2023-04-18T14:54:45.166Z,14.91
2023-04-18T14:57:47.904Z,17.34
2023-04-18T15:00:55.140Z,18.16
2023-04-18T15:04:00.360Z,18.51
2023-04-18T15:07:04.078Z,21.62
2023-04-18T15:10:08.588Z,21.85
2023-04-18T15:13:11.640Z,20.88
2023-04-18T15:16:14.244Z,20.13
2023-04-18T15:19:17.030Z,19.38
2023-04-18T15:22:19.606Z,18.49
2023-04-18T15:25:23.548Z,19.28
2023-04-18T15:28:26.116Z,20.17
2023-04-18T15:31:28.688Z,19.94
2023-04-18T15:34:31.488Z,21.16
2023-04-18T15:37:34.995Z,22.35
2023-04-18T15:40:38.181Z,23.64
2023-04-18T15:43:42.402Z,24.82
2023-04-18T15:46:45.016Z,25.74
2023-04-18T15:49:47.977Z,26.12
2023-04-18T15:52:51.884Z,26.77
2023-04-18T15:55:55.540Z,27.69
2023-04-18T15:59:00.118Z,27.91
2023-04-18T16:02:03.278Z,27.48
2023-04-18T16:05:07.563Z,27.63
2023-04-18T16:08:10.514Z,27.37
2023-04-18T16:11:13.150Z,28.16
2023-04-18T16:14:16.319Z,28.33
2023-04-18T16:17:25.138Z,28.51
2023-04-18T16:20:28.680Z,28.75
2023-04-18T16:23:32.599Z,28.37
2023-04-18T16:26:35.246Z,29.14
2023-04-18T16:29:37.739Z,28.99
2023-04-18T16:32:40.403Z,28.99
2023-04-18T16:35:43.671Z,29.46
2023-04-18T16:38:46.383Z,29.31
2023-04-18T16:41:48.852Z,29.81
2023-04-18T16:44:52.727Z,29.25
2023-04-18T16:47:57.245Z,29.37
2023-04-18T16:50:59.965Z,29.92
2023-04-18T16:54:04.753Z,30.27
2023-04-18T16:57:08.250Z,30.38
2023-04-18T17:00:17.600Z,30.24
2023-04-18T17:03:23.645Z,30.46
2023-04-18T17:06:27.252Z,30.61
2023-04-18T17:09:30.440Z,30.79
2023-04-18T17:12:33.688Z,31.04
2023-04-18T17:15:37.064Z,31.17
2023-04-18T17:18:41.665Z,30.69
2023-04-18T17:21:45.556Z,30.85
2023-04-18T17:24:48.762Z,31.11
2023-04-18T17:27:51.300Z,31.38
2023-04-18T17:30:53.919Z,31.11
2023-04-18T17:33:56.928Z,32.00
2023-04-18T17:37:00.282Z,32.66
2023-04-18T17:40:06.651Z,33.62
2023-04-18T17:43:11.781Z,32.66
2023-04-18T17:46:15.603Z,33.97
2023-04-18T17:49:18.425Z,34.08
2023-04-18T17:52:21.688Z,35.08
2023-04-18T17:55:26.165Z,34.87
2023-04-18T17:58:29.315Z,35.51
2023-04-18T18:01:32.908Z,35.79
2023-04-18T18:04:35.652Z,36.36
2023-04-18T18:07:38.540Z,36.47
2023-04-18T18:10:49.789Z,37.30
2023-04-18T18:13:54.678Z,36.08
2023-04-18T18:16:57.341Z,36.19
2023-04-18T18:20:00.122Z,36.06
2023-04-18T18:23:02.831Z,35.92
2023-04-18T18:26:06.665Z,35.71
2023-04-18T18:29:11.203Z,35.92
2023-04-18T18:32:14.127Z,36.36
2023-04-18T18:35:16.797Z,35.84
2023-04-18T18:38:20.464Z,36.35
2023-04-18T18:41:23.397Z,37.01
2023-04-18T18:44:25.945Z,38.08
2023-04-18T18:47:30.575Z,38.09
2023-04-18T18:50:34.387Z,37.95
2023-04-18T18:53:38.372Z,38.08
2023-04-18T18:56:44.269Z,37.82
2023-04-18T18:59:50.110Z,38.02
2023-04-18T19:02:53.588Z,37.38
2023-04-18T19:05:56.676Z,37.77
2023-04-18T19:08:59.969Z,36.41
2023-04-18T19:12:05.085Z,36.48
2023-04-18T19:15:08.473Z,36.49
2023-04-18T19:18:11.941Z,36.29
2023-04-18T19:21:15.978Z,36.42
2023-04-18T19:24:19.402Z,36.16
2023-04-18T19:27:22.203Z,36.22
2023-04-18T19:30:25.446Z,37.02
2023-04-18T19:33:29.338Z,36.57
2023-04-18T19:36:32.926Z,36.86
2023-04-18T19:39:35.488Z,37.44
2023-04-18T19:42:38.960Z,36.76
2023-04-18T19:45:42.552Z,36.80
2023-04-18T19:48:46.041Z,36.84
2023-04-18T19:51:49.073Z,36.95
2023-04-18T19:54:53.305Z,37.39
2023-04-18T19:57:59.455Z,36.77
2023-04-18T20:01:05.855Z,37.30
2023-04-18T20:04:08.823Z,37.33
2023-04-18T20:07:11.516Z,37.21
2023-04-18T20:10:14.060Z,37.89
2023-04-18T20:13:16.622Z,37.27
2023-04-18T20:16:19.184Z,37.61
2023-04-18T20:19:26.877Z,37.11
2023-04-18T20:22:32.380Z,37.05
2023-04-18T20:25:35.949Z,37.44
2023-04-18T20:28:38.574Z,37.10
2023-04-18T20:31:42.459Z,37.19
2023-04-18T20:34:46.736Z,37.68
2023-04-18T20:37:50.512Z,38.15
2023-04-18T20:40:54.212Z,37.45
2023-04-18T20:43:58.737Z,37.34
2023-04-18T20:47:02.374Z,38.46
2023-04-18T20:50:06.185Z,38.99
2023-04-18T20:53:09.601Z,39.43
2023-04-18T20:56:12.143Z,39.28
2023-04-18T20:59:15.632Z,39.21
2023-04-18T21:02:19.195Z,40.24
2023-04-18T21:05:22.021Z,40.05
2023-04-18T21:08:25.575Z,39.17
2023-04-18T21:11:28.345Z,39.95
2023-04-18T21:14:31.438Z,39.74
2023-04-18T21:17:34.130Z,39.63
2023-04-18T21:20:38.608Z,39.72
2023-04-18T21:23:43.338Z,40.09
2023-04-18T21:26:46.638Z,40.14
2023-04-18T21:29:51.049Z,40.60
2023-04-18T21:32:54.722Z,40.40
2023-04-18T21:35:58.047Z,40.90
2023-04-18T21:39:01.748Z,40.86
2023-04-18T21:42:04.418Z,40.51
2023-04-18T21:45:07.713Z,41.38
2023-04-18T21:48:11.516Z,41.13
2023-04-18T21:51:16.666Z,41.36
2023-04-18T21:54:19.311Z,40.99
2023-04-18T21:57:22.661Z,41.14
2023-04-18T22:00:25.274Z,41.62
2023-04-18T22:03:29.502Z,41.48
2023-04-18T22:06:33.621Z,41.65
2023-04-18T22:09:36.392Z,41.47
2023-04-18T22:12:39.557Z,41.71
2023-04-18T22:15:43.138Z,41.70
2023-04-18T22:18:47.099Z,41.53
2023-04-18T22:21:49.753Z,42.27
2023-04-18T22:24:53.162Z,42.20
2023-04-18T22:27:56.674Z,42.27
2023-04-18T22:31:01.072Z,43.17
2023-04-18T22:34:04.863Z,42.66
2023-04-18T22:37:07.395Z,42.48
2023-04-18T22:40:11.738Z,42.79
2023-04-18T22:43:14.286Z,43.13
2023-04-18T22:46:17.776Z,42.75
2023-04-18T22:49:22.295Z,43.15
2023-04-18T22:52:25.760Z,43.19
2023-04-18T22:55:28.377Z,42.56
2023-04-18T22:58:31.655Z,42.73
2023-04-18T23:01:35.300Z,43.02
2023-04-18T23:04:40.114Z,42.64
2023-04-18T23:07:42.796Z,42.36
2023-04-18T23:10:45.742Z,41.67
2023-04-18T23:13:49.248Z,42.03
2023-04-18T23:16:52.776Z,41.70
2023-04-18T23:19:56.148Z,41.98
2023-04-18T23:22:59.661Z,41.78
2023-04-18T23:26:03.452Z,41.93
2023-04-18T23:29:06.733Z,41.51
2023-04-18T23:32:09.305Z,41.40
2023-04-18T23:35:12.075Z,41.71
2023-04-18T23:38:14.688Z,41.81
2023-04-18T23:41:18.225Z,41.44
2023-04-18T23:44:21.904Z,41.11
2023-04-18T23:47:24.552Z,41.24
2023-04-18T23:50:27.297Z,41.21
2023-04-18T23:53:30.916Z,41.53
2023-04-18T23:56:34.369Z,41.55
2023-04-18T23:59:37.484Z,40.97
